sensor_id;sensor_type;location;lat;lon;timestamp;temperature;humidity
29803;DHT22;16702;50.898;4.662;2023-05-10T00:01:09;15.40;99.90
29803;DHT22;16702;50.898;4.662;2023-05-10T00:03:40;15.40;99.90
29803;DHT22;16702;50.898;4.662;2023-05-10T00:06:10;15.40;99.90
29803;DHT22;16702;50.898;4.662;2023-05-10T00:08:41;15.30;99.90
29803;DHT22;16702;50.898;4.662;2023-05-10T00:11:14;15.40;99.90
29803;DHT22;16702;50.898;4.662;2023-05-10T00:13:47;15.20;99.90
29803;DHT22;16702;50.898;4.662;2023-05-10T00:16:18;15.30;99.90
29803;DHT22;16702;50.898;4.662;2023-05-10T00:18:48;15.20;99.90
29803;DHT22;16702;50.898;4.662;2023-05-10T00:21:19;15.30;99.90
29803;DHT22;16702;50.898;4.662;2023-05-10T00:23:49;15.30;99.90
29803;DHT22;16702;50.898;4.662;2023-05-10T00:26:22;15.30;99.90
29803;DHT22;16702;50.898;4.662;2023-05-10T00:28:55;15.30;99.90
29803;DHT22;16702;50.898;4.662;2023-05-10T00:31:26;15.30;99.90
29803;DHT22;16702;50.898;4.662;2023-05-10T00:33:57;15.30;99.90
29803;DHT22;16702;50.898;4.662;2023-05-10T00:36:27;15.30;99.90
29803;DHT22;16702;50.898;4.662;2023-05-10T00:38:58;15.30;99.90
29803;DHT22;16702;50.898;4.662;2023-05-10T00:41:33;15.20;99.90
29803;DHT22;16702;50.898;4.662;2023-05-10T00:44:05;15.20;99.90
29803;DHT22;16702;50.898;4.662;2023-05-10T00:46:36;15.10;99.90
29803;DHT22;16702;50.898;4.662;2023-05-10T00:49:07;15.20;99.90
29803;DHT22;16702;50.898;4.662;2023-05-10T00:51:37;15.20;99.90
29803;DHT22;16702;50.898;4.662;2023-05-10T00:54:11;15.20;99.90
29803;DHT22;16702;50.898;4.662;2023-05-10T00:56:44;15.10;99.90
29803;DHT22;16702;50.898;4.662;2023-05-10T00:59:16;15.20;99.90
29803;DHT22;16702;50.898;4.662;2023-05-10T01:01:47;15.20;99.90
29803;DHT22;16702;50.898;4.662;2023-05-10T01:04:19;15.10;99.90
29803;DHT22;16702;50.898;4.662;2023-05-10T01:06:53;15.20;99.90
29803;DHT22;16702;50.898;4.662;2023-05-10T01:09:24;15.20;99.90
29803;DHT22;16702;50.898;4.662;2023-05-10T01:11:59;15.10;99.90
29803;DHT22;16702;50.898;4.662;2023-05-10T01:14:30;15.10;99.90
29803;DHT22;16702;50.898;4.662;2023-05-10T01:17:01;15.20;99.90
29803;DHT22;16702;50.898;4.662;2023-05-10T01:19:34;15.20;99.90
29803;DHT22;16702;50.898;4.662;2023-05-10T01:22:16;15.20;99.90
29803;DHT22;16702;50.898;4.662;2023-05-10T01:25:23;15.10;99.90
29803;DHT22;16702;50.898;4.662;2023-05-10T01:28:32;15.10;99.90
29803;DHT22;16702;50.898;4.662;2023-05-10T01:31:30;15.10;99.90
29803;DHT22;16702;50.898;4.662;2023-05-10T01:34:10;15.10;99.90
29803;DHT22;16702;50.898;4.662;2023-05-10T01:36:47;15.10;99.90
29803;DHT22;16702;50.898;4.662;2023-05-10T01:39:23;15.20;99.90
29803;DHT22;16702;50.898;4.662;2023-05-10T01:41:57;15.10;99.90
29803;DHT22;16702;50.898;4.662;2023-05-10T01:44:35;15.10;99.90
29803;DHT22;16702;50.898;4.662;2023-05-10T01:47:09;15.10;99.90
29803;DHT22;16702;50.898;4.662;2023-05-10T01:49:50;15.10;99.90
29803;DHT22;16702;50.898;4.662;2023-05-10T01:52:26;15.10;99.90
29803;DHT22;16702;50.898;4.662;2023-05-10T01:55:02;15.10;99.90
29803;DHT22;16702;50.898;4.662;2023-05-10T01:57:36;15.00;99.90
29803;DHT22;16702;50.898;4.662;2023-05-10T02:00:10;15.10;99.90
29803;DHT22;16702;50.898;4.662;2023-05-10T02:02:45;15.00;99.90
29803;DHT22;16702;50.898;4.662;2023-05-10T02:05:19;15.00;99.90
29803;DHT22;16702;50.898;4.662;2023-05-10T02:07:51;15.00;99.90
29803;DHT22;16702;50.898;4.662;2023-05-10T02:10:22;14.90;99.90
29803;DHT22;16702;50.898;4.662;2023-05-10T02:13:18;15.00;99.90
29803;DHT22;16702;50.898;4.662;2023-05-10T02:15:50;15.00;99.90
29803;DHT22;16702;50.898;4.662;2023-05-10T02:18:22;15.00;99.90
29803;DHT22;16702;50.898;4.662;2023-05-10T02:20:58;15.00;99.90
29803;DHT22;16702;50.898;4.662;2023-05-10T02:23:29;15.00;99.90
29803;DHT22;16702;50.898;4.662;2023-05-10T02:26:02;15.00;99.90
29803;DHT22;16702;50.898;4.662;2023-05-10T02:28:33;15.00;99.90
29803;DHT22;16702;50.898;4.662;2023-05-10T02:31:06;15.00;99.90
29803;DHT22;16702;50.898;4.662;2023-05-10T02:33:39;15.00;99.90
29803;DHT22;16702;50.898;4.662;2023-05-10T02:36:13;14.90;99.90
29803;DHT22;16702;50.898;4.662;2023-05-10T02:38:44;15.00;99.90
29803;DHT22;16702;50.898;4.662;2023-05-10T02:41:16;15.00;99.90
29803;DHT22;16702;50.898;4.662;2023-05-10T02:43:50;14.90;99.90
29803;DHT22;16702;50.898;4.662;2023-05-10T02:46:21;15.00;99.90
29803;DHT22;16702;50.898;4.662;2023-05-10T02:48:51;15.00;99.90
29803;DHT22;16702;50.898;4.662;2023-05-10T02:51:25;15.00;99.90
29803;DHT22;16702;50.898;4.662;2023-05-10T02:54:01;15.00;99.90
29803;DHT22;16702;50.898;4.662;2023-05-10T02:56:35;15.00;99.90
29803;DHT22;16702;50.898;4.662;2023-05-10T02:59:07;15.00;99.90
29803;DHT22;16702;50.898;4.662;2023-05-10T03:01:38;15.00;99.90
29803;DHT22;16702;50.898;4.662;2023-05-10T03:04:08;15.00;99.90
29803;DHT22;16702;50.898;4.662;2023-05-10T03:06:42;15.00;99.90
29803;DHT22;16702;50.898;4.662;2023-05-10T03:09:13;15.00;99.90
29803;DHT22;16702;50.898;4.662;2023-05-10T03:11:50;15.00;99.90
29803;DHT22;16702;50.898;4.662;2023-05-10T03:14:39;15.00;99.90
29803;DHT22;16702;50.898;4.662;2023-05-10T03:17:18;14.90;99.90
29803;DHT22;16702;50.898;4.662;2023-05-10T03:19:54;15.00;99.90
29803;DHT22;16702;50.898;4.662;2023-05-10T03:22:31;15.00;99.90
29803;DHT22;16702;50.898;4.662;2023-05-10T03:25:05;15.00;99.90
29803;DHT22;16702;50.898;4.662;2023-05-10T03:27:40;14.90;99.90
29803;DHT22;16702;50.898;4.662;2023-05-10T03:30:12;14.90;99.90
29803;DHT22;16702;50.898;4.662;2023-05-10T03:32:43;14.90;99.90
29803;DHT22;16702;50.898;4.662;2023-05-10T03:35:16;14.90;99.90
29803;DHT22;16702;50.898;4.662;2023-05-10T03:37:49;14.80;99.90
29803;DHT22;16702;50.898;4.662;2023-05-10T03:40:20;14.80;99.90
29803;DHT22;16702;50.898;4.662;2023-05-10T03:42:53;14.70;99.90
29803;DHT22;16702;50.898;4.662;2023-05-10T03:45:24;14.70;99.90
29803;DHT22;16702;50.898;4.662;2023-05-10T03:47:54;14.80;99.90
29803;DHT22;16702;50.898;4.662;2023-05-10T03:50:25;14.80;99.90
29803;DHT22;16702;50.898;4.662;2023-05-10T03:52:58;14.80;99.90
29803;DHT22;16702;50.898;4.662;2023-05-10T03:55:29;14.70;99.90
29803;DHT22;16702;50.898;4.662;2023-05-10T03:58:02;14.70;99.90
29803;DHT22;16702;50.898;4.662;2023-05-10T04:00:33;14.70;99.90
29803;DHT22;16702;50.898;4.662;2023-05-10T04:03:04;14.70;99.90
29803;DHT22;16702;50.898;4.662;2023-05-10T04:05:35;14.70;99.90
29803;DHT22;16702;50.898;4.662;2023-05-10T04:08:08;14.60;99.90
29803;DHT22;16702;50.898;4.662;2023-05-10T04:10:39;14.60;99.90
29803;DHT22;16702;50.898;4.662;2023-05-10T04:13:09;14.60;99.90
29803;DHT22;16702;50.898;4.662;2023-05-10T04:15:39;14.50;99.90
29803;DHT22;16702;50.898;4.662;2023-05-10T04:18:10;14.50;99.90
29803;DHT22;16702;50.898;4.662;2023-05-10T04:20:41;14.50;99.90
29803;DHT22;16702;50.898;4.662;2023-05-10T04:23:14;14.50;99.90
29803;DHT22;16702;50.898;4.662;2023-05-10T04:25:44;14.50;99.90
29803;DHT22;16702;50.898;4.662;2023-05-10T04:28:14;14.50;99.90
29803;DHT22;16702;50.898;4.662;2023-05-10T04:30:45;14.40;99.90
29803;DHT22;16702;50.898;4.662;2023-05-10T04:33:16;14.40;99.90
29803;DHT22;16702;50.898;4.662;2023-05-10T04:35:46;14.30;99.90
29803;DHT22;16702;50.898;4.662;2023-05-10T04:38:19;14.30;99.90
29803;DHT22;16702;50.898;4.662;2023-05-10T04:40:50;14.30;99.90
29803;DHT22;16702;50.898;4.662;2023-05-10T04:43:21;14.30;99.90
29803;DHT22;16702;50.898;4.662;2023-05-10T04:45:51;14.30;99.90
29803;DHT22;16702;50.898;4.662;2023-05-10T04:48:21;14.30;99.90
29803;DHT22;16702;50.898;4.662;2023-05-10T04:50:52;14.30;99.90
29803;DHT22;16702;50.898;4.662;2023-05-10T04:53:25;14.30;99.90
29803;DHT22;16702;50.898;4.662;2023-05-10T04:55:55;14.20;99.90
29803;DHT22;16702;50.898;4.662;2023-05-10T04:58:26;14.20;99.90
29803;DHT22;16702;50.898;4.662;2023-05-10T05:00:56;14.30;99.90
29803;DHT22;16702;50.898;4.662;2023-05-10T05:03:27;14.20;99.90
29803;DHT22;16702;50.898;4.662;2023-05-10T05:05:57;14.30;99.90
29803;DHT22;16702;50.898;4.662;2023-05-10T05:08:30;14.30;99.90
29803;DHT22;16702;50.898;4.662;2023-05-10T05:11:01;14.30;99.90
29803;DHT22;16702;50.898;4.662;2023-05-10T05:13:31;14.30;99.90
29803;DHT22;16702;50.898;4.662;2023-05-10T05:16:02;14.30;99.90
29803;DHT22;16702;50.898;4.662;2023-05-10T05:18:32;14.30;99.90
29803;DHT22;16702;50.898;4.662;2023-05-10T05:21:03;14.40;99.90
29803;DHT22;16702;50.898;4.662;2023-05-10T05:23:36;14.30;99.90
29803;DHT22;16702;50.898;4.662;2023-05-10T05:26:07;14.30;99.90
29803;DHT22;16702;50.898;4.662;2023-05-10T05:28:38;14.30;99.90
29803;DHT22;16702;50.898;4.662;2023-05-10T05:31:08;14.30;99.90
29803;DHT22;16702;50.898;4.662;2023-05-10T05:33:39;14.40;99.90
29803;DHT22;16702;50.898;4.662;2023-05-10T05:36:09;14.30;99.90
29803;DHT22;16702;50.898;4.662;2023-05-10T05:38:43;14.30;99.90
29803;DHT22;16702;50.898;4.662;2023-05-10T05:41:13;14.30;99.90
29803;DHT22;16702;50.898;4.662;2023-05-10T05:43:43;14.40;99.90
29803;DHT22;16702;50.898;4.662;2023-05-10T05:46:14;14.40;99.90
29803;DHT22;16702;50.898;4.662;2023-05-10T05:48:44;14.40;99.90
29803;DHT22;16702;50.898;4.662;2023-05-10T05:51:15;14.40;99.90
29803;DHT22;16702;50.898;4.662;2023-05-10T05:53:48;14.30;99.90
29803;DHT22;16702;50.898;4.662;2023-05-10T05:56:18;14.30;99.90
29803;DHT22;16702;50.898;4.662;2023-05-10T05:58:51;14.40;99.90
29803;DHT22;16702;50.898;4.662;2023-05-10T06:01:22;14.30;99.90
29803;DHT22;16702;50.898;4.662;2023-05-10T06:03:52;14.40;99.90
29803;DHT22;16702;50.898;4.662;2023-05-10T06:06:23;14.40;99.90
29803;DHT22;16702;50.898;4.662;2023-05-10T06:08:56;14.40;99.90
29803;DHT22;16702;50.898;4.662;2023-05-10T06:11:27;14.40;99.90
29803;DHT22;16702;50.898;4.662;2023-05-10T06:13:59;14.40;99.90
29803;DHT22;16702;50.898;4.662;2023-05-10T06:16:31;14.50;99.90
29803;DHT22;16702;50.898;4.662;2023-05-10T06:19:02;14.50;99.90
29803;DHT22;16702;50.898;4.662;2023-05-10T06:21:33;14.50;99.90
29803;DHT22;16702;50.898;4.662;2023-05-10T06:24:06;14.50;99.90
29803;DHT22;16702;50.898;4.662;2023-05-10T06:26:37;14.50;99.90
29803;DHT22;16702;50.898;4.662;2023-05-10T06:29:07;14.50;99.90
29803;DHT22;16702;50.898;4.662;2023-05-10T06:31:38;14.60;99.90
29803;DHT22;16702;50.898;4.662;2023-05-10T06:34:08;14.60;99.90
29803;DHT22;16702;50.898;4.662;2023-05-10T06:36:39;14.60;99.90
29803;DHT22;16702;50.898;4.662;2023-05-10T06:39:12;14.60;99.90
29803;DHT22;16702;50.898;4.662;2023-05-10T06:41:43;14.60;99.90
29803;DHT22;16702;50.898;4.662;2023-05-10T06:44:13;14.60;99.90
29803;DHT22;16702;50.898;4.662;2023-05-10T06:46:44;14.80;99.90
29803;DHT22;16702;50.898;4.662;2023-05-10T06:49:14;14.70;99.90
29803;DHT22;16702;50.898;4.662;2023-05-10T06:51:45;14.70;99.90
29803;DHT22;16702;50.898;4.662;2023-05-10T06:54:18;14.70;99.90
29803;DHT22;16702;50.898;4.662;2023-05-10T06:56:49;14.70;99.90
29803;DHT22;16702;50.898;4.662;2023-05-10T06:59:19;14.70;99.90
29803;DHT22;16702;50.898;4.662;2023-05-10T07:01:50;14.80;99.90
29803;DHT22;16702;50.898;4.662;2023-05-10T07:04:21;14.80;99.90
29803;DHT22;16702;50.898;4.662;2023-05-10T07:06:52;14.80;99.90
29803;DHT22;16702;50.898;4.662;2023-05-10T07:09:25;14.80;99.90
29803;DHT22;16702;50.898;4.662;2023-05-10T07:11:55;14.80;99.90
29803;DHT22;16702;50.898;4.662;2023-05-10T07:14:26;14.70;99.90
29803;DHT22;16702;50.898;4.662;2023-05-10T07:16:56;14.60;99.90
29803;DHT22;16702;50.898;4.662;2023-05-10T07:19:27;14.60;99.90
29803;DHT22;16702;50.898;4.662;2023-05-10T07:21:59;14.60;99.90
29803;DHT22;16702;50.898;4.662;2023-05-10T07:24:33;14.50;99.90
29803;DHT22;16702;50.898;4.662;2023-05-10T07:27:03;14.60;99.90
29803;DHT22;16702;50.898;4.662;2023-05-10T07:29:34;14.60;99.90
29803;DHT22;16702;50.898;4.662;2023-05-10T07:32:06;14.60;99.90
29803;DHT22;16702;50.898;4.662;2023-05-10T07:34:37;14.60;99.90
29803;DHT22;16702;50.898;4.662;2023-05-10T07:37:07;14.60;99.90
29803;DHT22;16702;50.898;4.662;2023-05-10T07:39:40;14.60;99.90
29803;DHT22;16702;50.898;4.662;2023-05-10T07:42:11;14.60;99.90
29803;DHT22;16702;50.898;4.662;2023-05-10T07:44:41;14.50;99.90
29803;DHT22;16702;50.898;4.662;2023-05-10T07:47:12;14.50;99.90
29803;DHT22;16702;50.898;4.662;2023-05-10T07:49:43;14.50;99.90
29803;DHT22;16702;50.898;4.662;2023-05-10T07:52:14;14.50;99.90
29803;DHT22;16702;50.898;4.662;2023-05-10T07:54:47;14.50;99.90
29803;DHT22;16702;50.898;4.662;2023-05-10T07:57:18;14.50;99.90
29803;DHT22;16702;50.898;4.662;2023-05-10T07:59:48;14.40;99.90
29803;DHT22;16702;50.898;4.662;2023-05-10T08:02:19;14.40;99.90
29803;DHT22;16702;50.898;4.662;2023-05-10T08:04:49;14.50;99.90
29803;DHT22;16702;50.898;4.662;2023-05-10T08:07:20;14.50;99.90
29803;DHT22;16702;50.898;4.662;2023-05-10T08:09:53;14.50;99.90
29803;DHT22;16702;50.898;4.662;2023-05-10T08:12:24;14.50;99.90
29803;DHT22;16702;50.898;4.662;2023-05-10T08:14:54;14.50;99.90
29803;DHT22;16702;50.898;4.662;2023-05-10T08:17:25;14.40;99.90
29803;DHT22;16702;50.898;4.662;2023-05-10T08:19:55;14.40;99.90
29803;DHT22;16702;50.898;4.662;2023-05-10T08:22:26;14.40;99.90
29803;DHT22;16702;50.898;4.662;2023-05-10T08:24:59;14.40;99.90
29803;DHT22;16702;50.898;4.662;2023-05-10T08:27:30;14.40;99.90
29803;DHT22;16702;50.898;4.662;2023-05-10T08:30:00;14.40;99.90
29803;DHT22;16702;50.898;4.662;2023-05-10T08:32:31;14.40;99.90
29803;DHT22;16702;50.898;4.662;2023-05-10T08:35:02;14.50;99.90
29803;DHT22;16702;50.898;4.662;2023-05-10T08:37:33;14.50;99.90
29803;DHT22;16702;50.898;4.662;2023-05-10T08:40:07;14.50;99.90
29803;DHT22;16702;50.898;4.662;2023-05-10T08:42:43;14.50;99.90
29803;DHT22;16702;50.898;4.662;2023-05-10T08:45:16;14.50;99.90
29803;DHT22;16702;50.898;4.662;2023-05-10T08:47:47;14.50;99.90
29803;DHT22;16702;50.898;4.662;2023-05-10T08:50:19;14.50;99.90
29803;DHT22;16702;50.898;4.662;2023-05-10T08:52:53;14.60;99.90
29803;DHT22;16702;50.898;4.662;2023-05-10T08:55:28;14.60;99.90
29803;DHT22;16702;50.898;4.662;2023-05-10T08:58:00;14.60;99.90
29803;DHT22;16702;50.898;4.662;2023-05-10T09:00:31;14.60;99.90
29803;DHT22;16702;50.898;4.662;2023-05-10T09:03:03;14.70;99.90
29803;DHT22;16702;50.898;4.662;2023-05-10T09:05:36;14.80;99.90
29803;DHT22;16702;50.898;4.662;2023-05-10T09:08:06;14.80;99.90
29803;DHT22;16702;50.898;4.662;2023-05-10T09:10:43;14.80;99.90
29803;DHT22;16702;50.898;4.662;2023-05-10T09:13:15;14.80;99.90
29803;DHT22;16702;50.898;4.662;2023-05-10T09:15:45;14.70;99.90
29803;DHT22;16702;50.898;4.662;2023-05-10T09:18:16;14.70;99.90
29803;DHT22;16702;50.898;4.662;2023-05-10T09:20:48;14.80;99.90
29803;DHT22;16702;50.898;4.662;2023-05-10T09:23:19;14.80;99.90
29803;DHT22;16702;50.898;4.662;2023-05-10T09:26:04;14.70;99.90
29803;DHT22;16702;50.898;4.662;2023-05-10T09:28:50;14.80;99.90
29803;DHT22;16702;50.898;4.662;2023-05-10T09:31:21;14.80;99.90
29803;DHT22;16702;50.898;4.662;2023-05-10T09:33:52;14.80;99.90
29803;DHT22;16702;50.898;4.662;2023-05-10T09:36:23;14.80;99.90
29803;DHT22;16702;50.898;4.662;2023-05-10T09:38:54;14.80;99.90
29803;DHT22;16702;50.898;4.662;2023-05-10T09:41:27;14.90;99.90
29803;DHT22;16702;50.898;4.662;2023-05-10T09:43:58;14.90;99.90
29803;DHT22;16702;50.898;4.662;2023-05-10T09:46:28;14.90;99.90
29803;DHT22;16702;50.898;4.662;2023-05-10T09:48:59;14.90;99.90
29803;DHT22;16702;50.898;4.662;2023-05-10T09:51:30;14.90;99.90
29803;DHT22;16702;50.898;4.662;2023-05-10T09:54:10;15.00;99.90
29803;DHT22;16702;50.898;4.662;2023-05-10T09:56:43;15.00;99.90
29803;DHT22;16702;50.898;4.662;2023-05-10T09:59:14;14.90;99.90
29803;DHT22;16702;50.898;4.662;2023-05-10T10:01:49;14.90;99.90
29803;DHT22;16702;50.898;4.662;2023-05-10T10:04:21;14.90;99.90
29803;DHT22;16702;50.898;4.662;2023-05-10T10:07:02;14.90;99.90
29803;DHT22;16702;50.898;4.662;2023-05-10T10:09:33;14.90;99.90
29803;DHT22;16702;50.898;4.662;2023-05-10T10:12:07;14.90;99.90
29803;DHT22;16702;50.898;4.662;2023-05-10T10:14:37;14.90;99.90
29803;DHT22;16702;50.898;4.662;2023-05-10T10:17:09;14.90;99.90
29803;DHT22;16702;50.898;4.662;2023-05-10T10:19:40;14.90;99.90
29803;DHT22;16702;50.898;4.662;2023-05-10T10:22:11;14.90;99.90
29803;DHT22;16702;50.898;4.662;2023-05-10T10:24:42;14.80;99.90
29803;DHT22;16702;50.898;4.662;2023-05-10T10:27:23;14.90;99.90
29803;DHT22;16702;50.898;4.662;2023-05-10T10:30:03;15.00;99.90
29803;DHT22;16702;50.898;4.662;2023-05-10T10:32:47;15.00;99.90
29803;DHT22;16702;50.898;4.662;2023-05-10T10:35:21;15.00;99.90
29803;DHT22;16702;50.898;4.662;2023-05-10T10:37:52;15.00;99.90
29803;DHT22;16702;50.898;4.662;2023-05-10T10:40:24;14.90;99.90
29803;DHT22;16702;50.898;4.662;2023-05-10T10:43:21;14.90;99.90
29803;DHT22;16702;50.898;4.662;2023-05-10T10:46:11;14.90;99.90
29803;DHT22;16702;50.898;4.662;2023-05-10T10:48:47;14.90;99.90
29803;DHT22;16702;50.898;4.662;2023-05-10T10:51:18;15.00;99.90
29803;DHT22;16702;50.898;4.662;2023-05-10T10:53:49;15.00;99.90
29803;DHT22;16702;50.898;4.662;2023-05-10T10:56:22;15.00;99.90
29803;DHT22;16702;50.898;4.662;2023-05-10T10:58:59;15.00;99.90
29803;DHT22;16702;50.898;4.662;2023-05-10T11:01:33;15.00;99.90
29803;DHT22;16702;50.898;4.662;2023-05-10T11:04:19;15.10;99.90
29803;DHT22;16702;50.898;4.662;2023-05-10T11:06:50;15.10;99.90
29803;DHT22;16702;50.898;4.662;2023-05-10T11:09:24;15.20;99.90
29803;DHT22;16702;50.898;4.662;2023-05-10T11:11:55;15.30;99.90
29803;DHT22;16702;50.898;4.662;2023-05-10T11:14:31;15.30;99.90
29803;DHT22;16702;50.898;4.662;2023-05-10T11:17:22;15.20;99.90
29803;DHT22;16702;50.898;4.662;2023-05-10T11:20:08;15.20;99.90
29803;DHT22;16702;50.898;4.662;2023-05-10T11:22:53;15.30;99.90
29803;DHT22;16702;50.898;4.662;2023-05-10T11:25:26;15.30;99.90
29803;DHT22;16702;50.898;4.662;2023-05-10T11:27:57;15.40;99.90
29803;DHT22;16702;50.898;4.662;2023-05-10T11:30:31;15.40;99.90
29803;DHT22;16702;50.898;4.662;2023-05-10T11:33:01;15.50;99.90
29803;DHT22;16702;50.898;4.662;2023-05-10T11:35:37;15.60;99.90
29803;DHT22;16702;50.898;4.662;2023-05-10T11:38:11;15.70;99.90
29803;DHT22;16702;50.898;4.662;2023-05-10T11:40:42;15.70;99.90
29803;DHT22;16702;50.898;4.662;2023-05-10T11:43:13;15.80;99.90
29803;DHT22;16702;50.898;4.662;2023-05-10T11:45:46;15.80;99.90
29803;DHT22;16702;50.898;4.662;2023-05-10T11:48:17;15.80;99.90
29803;DHT22;16702;50.898;4.662;2023-05-10T11:50:51;15.80;99.90
29803;DHT22;16702;50.898;4.662;2023-05-10T11:53:26;15.80;99.90
29803;DHT22;16702;50.898;4.662;2023-05-10T11:56:02;15.90;99.90
29803;DHT22;16702;50.898;4.662;2023-05-10T11:58:34;15.80;99.90
29803;DHT22;16702;50.898;4.662;2023-05-10T12:01:09;16.00;99.90
29803;DHT22;16702;50.898;4.662;2023-05-10T12:03:40;15.90;99.90
29803;DHT22;16702;50.898;4.662;2023-05-10T12:06:11;16.00;99.90
29803;DHT22;16702;50.898;4.662;2023-05-10T12:08:45;16.00;99.90
29803;DHT22;16702;50.898;4.662;2023-05-10T12:11:19;16.10;99.90
29803;DHT22;16702;50.898;4.662;2023-05-10T12:13:51;16.10;99.90
29803;DHT22;16702;50.898;4.662;2023-05-10T12:16:26;16.00;99.90
29803;DHT22;16702;50.898;4.662;2023-05-10T12:18:59;16.00;99.90
29803;DHT22;16702;50.898;4.662;2023-05-10T12:21:30;16.10;99.90
29803;DHT22;16702;50.898;4.662;2023-05-10T12:24:02;16.20;99.90
29803;DHT22;16702;50.898;4.662;2023-05-10T12:26:35;16.30;99.90
29803;DHT22;16702;50.898;4.662;2023-05-10T12:29:13;16.20;99.90
29803;DHT22;16702;50.898;4.662;2023-05-10T12:31:55;16.30;99.90
29803;DHT22;16702;50.898;4.662;2023-05-10T12:34:29;16.40;99.90
29803;DHT22;16702;50.898;4.662;2023-05-10T12:37:00;16.50;99.90
29803;DHT22;16702;50.898;4.662;2023-05-10T12:39:39;16.40;99.90
29803;DHT22;16702;50.898;4.662;2023-05-10T12:42:10;16.60;99.90
29803;DHT22;16702;50.898;4.662;2023-05-10T12:44:41;16.60;99.90
29803;DHT22;16702;50.898;4.662;2023-05-10T12:47:14;16.70;99.90
29803;DHT22;16702;50.898;4.662;2023-05-10T12:49:45;16.70;99.90
29803;DHT22;16702;50.898;4.662;2023-05-10T12:52:15;16.70;99.90
29803;DHT22;16702;50.898;4.662;2023-05-10T12:54:46;16.70;99.90
29803;DHT22;16702;50.898;4.662;2023-05-10T12:57:16;16.70;99.90
29803;DHT22;16702;50.898;4.662;2023-05-10T12:59:47;16.70;99.90
29803;DHT22;16702;50.898;4.662;2023-05-10T13:02:20;16.80;99.90
29803;DHT22;16702;50.898;4.662;2023-05-10T13:04:51;16.80;99.90
29803;DHT22;16702;50.898;4.662;2023-05-10T13:07:21;16.90;99.90
29803;DHT22;16702;50.898;4.662;2023-05-10T13:09:52;16.90;99.90
29803;DHT22;16702;50.898;4.662;2023-05-10T13:12:23;16.90;99.90
29803;DHT22;16702;50.898;4.662;2023-05-10T13:14:53;17.00;99.90
29803;DHT22;16702;50.898;4.662;2023-05-10T13:17:27;17.00;99.90
29803;DHT22;16702;50.898;4.662;2023-05-10T13:20:00;17.00;99.90
29803;DHT22;16702;50.898;4.662;2023-05-10T13:22:30;17.10;99.90
29803;DHT22;16702;50.898;4.662;2023-05-10T13:25:07;17.10;99.90
29803;DHT22;16702;50.898;4.662;2023-05-10T13:27:38;17.10;99.90
29803;DHT22;16702;50.898;4.662;2023-05-10T13:30:10;17.20;99.90
29803;DHT22;16702;50.898;4.662;2023-05-10T13:32:44;17.10;99.90
29803;DHT22;16702;50.898;4.662;2023-05-10T13:35:15;17.10;99.90
29803;DHT22;16702;50.898;4.662;2023-05-10T13:37:45;17.00;99.90
29803;DHT22;16702;50.898;4.662;2023-05-10T13:40:17;17.10;99.90
29803;DHT22;16702;50.898;4.662;2023-05-10T13:42:47;17.20;99.90
29803;DHT22;16702;50.898;4.662;2023-05-10T13:45:18;17.20;99.90
29803;DHT22;16702;50.898;4.662;2023-05-10T13:47:52;17.20;99.90
29803;DHT22;16702;50.898;4.662;2023-05-10T13:50:23;17.10;99.90
29803;DHT22;16702;50.898;4.662;2023-05-10T13:52:54;17.10;99.90
29803;DHT22;16702;50.898;4.662;2023-05-10T13:55:25;17.10;99.90
29803;DHT22;16702;50.898;4.662;2023-05-10T13:57:56;17.10;99.90
29803;DHT22;16702;50.898;4.662;2023-05-10T14:00:26;17.10;99.90
29803;DHT22;16702;50.898;4.662;2023-05-10T14:03:00;17.00;99.90
29803;DHT22;16702;50.898;4.662;2023-05-10T14:05:32;17.10;99.90
29803;DHT22;16702;50.898;4.662;2023-05-10T14:08:03;17.10;99.90
29803;DHT22;16702;50.898;4.662;2023-05-10T14:10:35;17.10;99.90
29803;DHT22;16702;50.898;4.662;2023-05-10T14:13:05;17.20;99.90
29803;DHT22;16702;50.898;4.662;2023-05-10T14:15:36;17.10;99.90
29803;DHT22;16702;50.898;4.662;2023-05-10T14:18:09;17.20;99.90
29803;DHT22;16702;50.898;4.662;2023-05-10T14:20:40;17.30;99.90
29803;DHT22;16702;50.898;4.662;2023-05-10T14:23:11;17.30;99.90
29803;DHT22;16702;50.898;4.662;2023-05-10T14:25:41;17.40;99.90
29803;DHT22;16702;50.898;4.662;2023-05-10T14:28:12;17.30;99.90
29803;DHT22;16702;50.898;4.662;2023-05-10T14:30:43;17.40;99.90
29803;DHT22;16702;50.898;4.662;2023-05-10T14:33:16;17.40;99.90
29803;DHT22;16702;50.898;4.662;2023-05-10T14:35:48;17.40;99.90
29803;DHT22;16702;50.898;4.662;2023-05-10T14:38:18;17.30;99.90
29803;DHT22;16702;50.898;4.662;2023-05-10T14:40:49;17.30;99.90
29803;DHT22;16702;50.898;4.662;2023-05-10T14:43:19;17.40;99.90
29803;DHT22;16702;50.898;4.662;2023-05-10T14:45:50;17.40;99.90
29803;DHT22;16702;50.898;4.662;2023-05-10T14:48:24;17.40;99.90
29803;DHT22;16702;50.898;4.662;2023-05-10T14:50:54;17.30;99.90
29803;DHT22;16702;50.898;4.662;2023-05-10T14:53:25;17.30;99.90
29803;DHT22;16702;50.898;4.662;2023-05-10T14:55:55;17.40;99.90
29803;DHT22;16702;50.898;4.662;2023-05-10T14:58:27;17.40;99.90
29803;DHT22;16702;50.898;4.662;2023-05-10T15:01:00;17.40;99.90
29803;DHT22;16702;50.898;4.662;2023-05-10T15:03:34;17.40;99.90
29803;DHT22;16702;50.898;4.662;2023-05-10T15:06:06;17.40;99.90
29803;DHT22;16702;50.898;4.662;2023-05-10T15:08:36;17.40;99.90
29803;DHT22;16702;50.898;4.662;2023-05-10T15:11:07;17.40;99.90
29803;DHT22;16702;50.898;4.662;2023-05-10T15:13:37;17.40;99.90
29803;DHT22;16702;50.898;4.662;2023-05-10T15:16:08;17.30;99.90
29803;DHT22;16702;50.898;4.662;2023-05-10T15:18:41;17.20;99.90
29803;DHT22;16702;50.898;4.662;2023-05-10T15:21:12;17.20;99.90
29803;DHT22;16702;50.898;4.662;2023-05-10T15:23:43;17.20;99.90
29803;DHT22;16702;50.898;4.662;2023-05-10T15:26:13;17.30;99.90
29803;DHT22;16702;50.898;4.662;2023-05-10T15:28:44;17.30;99.90
29803;DHT22;16702;50.898;4.662;2023-05-10T15:31:15;17.30;99.90
29803;DHT22;16702;50.898;4.662;2023-05-10T15:33:48;17.30;99.90
29803;DHT22;16702;50.898;4.662;2023-05-10T15:36:18;17.30;99.90
29803;DHT22;16702;50.898;4.662;2023-05-10T15:38:49;17.30;99.90
29803;DHT22;16702;50.898;4.662;2023-05-10T15:41:19;17.30;99.90
29803;DHT22;16702;50.898;4.662;2023-05-10T15:43:51;17.20;99.90
29803;DHT22;16702;50.898;4.662;2023-05-10T15:46:21;17.10;99.90
29803;DHT22;16702;50.898;4.662;2023-05-10T15:48:54;16.90;99.90
29803;DHT22;16702;50.898;4.662;2023-05-10T15:51:25;16.70;99.90
29803;DHT22;16702;50.898;4.662;2023-05-10T15:53:56;16.70;99.90
29803;DHT22;16702;50.898;4.662;2023-05-10T15:56:34;16.60;99.90
29803;DHT22;16702;50.898;4.662;2023-05-10T15:59:04;16.70;99.90
29803;DHT22;16702;50.898;4.662;2023-05-10T16:01:37;16.60;99.90
29803;DHT22;16702;50.898;4.662;2023-05-10T16:04:10;16.40;99.90